Carolina Shores, North Carolina
Current Conditions -  °F | °C
As of 12:53 PM on Thursday 30 Oct 2014 (Local Time) from KCRE Reporting Station
Broken Clouds Broken Clouds  
Wind Chill: 68°   Ceiling: 3000
Heat Index: 68°   Visibility: 10mi
Dew Point: 54°   Wind: 13mph
Humidity: 61%   Direction: 50°NE
Pressure: 29.98"   Gusts: NA
Location:  33.9181°N, 78.5805°W
Report Text: KCRE 301653Z 05011KT 10SM SCT023 BKN030 20/12 A2998 RMK AO1 SLP154 T02000122
Loading
Personal Weather Stations






























Interactive Weather Map
Tropical Storm Tracking
New forecast layout! Learn more

10-Day Weather Forecast

Advertisements
Track Severe Weather on mobile